createdAt,value
2022-08-25T00:01:30.458Z,21.60
2022-08-25T00:05:33.843Z,21.50
2022-08-25T00:09:35.868Z,21.30
2022-08-25T00:13:39.004Z,21.20
2022-08-25T00:17:40.572Z,21.10
2022-08-25T00:21:43.121Z,21.10
2022-08-25T00:25:44.704Z,21.30
2022-08-25T00:29:46.347Z,21.00
2022-08-25T00:33:48.073Z,20.90
2022-08-25T00:37:49.968Z,21.00
2022-08-25T00:41:53.425Z,21.10
2022-08-25T00:45:58.230Z,21.20
2022-08-25T00:50:01.362Z,20.90
2022-08-25T00:54:04.533Z,20.60
2022-08-25T00:58:11.505Z,20.20
2022-08-25T01:02:15.154Z,20.10
2022-08-25T01:06:17.313Z,20.00
2022-08-25T01:10:21.300Z,20.20
2022-08-25T01:14:24.464Z,20.30
2022-08-25T01:18:28.348Z,20.30
2022-08-25T01:22:29.958Z,20.30
2022-08-25T01:26:33.458Z,20.30
2022-08-25T01:30:35.580Z,20.50
2022-08-25T01:34:38.472Z,20.20
2022-08-25T01:38:40.056Z,20.40
2022-08-25T01:42:48.301Z,20.10
2022-08-25T01:46:51.161Z,20.10
2022-08-25T01:50:52.776Z,20.10
2022-08-25T01:54:54.455Z,20.10
2022-08-25T01:58:56.844Z,19.90
2022-08-25T02:02:58.635Z,19.80
2022-08-25T02:07:01.169Z,19.70
2022-08-25T02:11:03.283Z,19.80
2022-08-25T02:15:07.696Z,19.80
2022-08-25T02:19:10.450Z,19.70
2022-08-25T02:23:12.070Z,19.50
2022-08-25T02:27:13.775Z,19.30
2022-08-25T02:31:15.556Z,19.40
2022-08-25T02:35:17.544Z,19.40
2022-08-25T02:39:19.190Z,19.50
2022-08-25T02:43:20.943Z,19.30
2022-08-25T02:47:25.705Z,19.00
2022-08-25T02:51:31.976Z,19.20
2022-08-25T02:55:33.676Z,19.40
2022-08-25T02:59:36.538Z,19.30
2022-08-25T03:03:40.304Z,19.10
2022-08-25T03:07:43.895Z,19.00
2022-08-25T03:11:47.324Z,19.20
2022-08-25T03:15:49.389Z,18.90
2022-08-25T03:19:51.041Z,18.80
2022-08-25T03:23:52.972Z,18.70
2022-08-25T03:27:54.847Z,18.70
2022-08-25T03:31:58.163Z,18.60
2022-08-25T03:35:59.939Z,18.70
2022-08-25T03:40:02.457Z,18.80
2022-08-25T03:44:04.748Z,18.50
2022-08-25T03:48:06.504Z,18.40
2022-08-25T03:52:08.202Z,18.40
2022-08-25T03:56:09.796Z,18.40
2022-08-25T04:00:14.343Z,18.30
2022-08-25T04:04:16.256Z,18.30
2022-08-25T04:08:19.001Z,18.30
2022-08-25T04:12:20.760Z,18.20
2022-08-25T04:16:31.311Z,18.10
2022-08-25T04:20:32.974Z,18.20
2022-08-25T04:24:34.625Z,18.10
2022-08-25T04:28:36.564Z,18.10
2022-08-25T04:32:38.103Z,18.00
2022-08-25T04:36:40.189Z,18.00
2022-08-25T04:40:41.896Z,17.90
2022-08-25T04:44:43.461Z,17.90
2022-08-25T04:48:45.331Z,18.00
2022-08-25T04:52:46.942Z,18.00
2022-08-25T04:56:49.617Z,18.10
2022-08-25T05:00:51.687Z,18.10
2022-08-25T05:04:55.337Z,17.90
2022-08-25T05:08:57.711Z,18.00
2022-08-25T05:12:59.488Z,17.80
2022-08-25T05:17:01.969Z,18.10
2022-08-25T05:21:08.447Z,18.30
2022-08-25T05:25:10.131Z,18.60
2022-08-25T05:29:11.908Z,18.90
2022-08-25T05:33:13.523Z,19.10
2022-08-25T05:37:15.164Z,19.30
2022-08-25T05:41:17.974Z,19.30
2022-08-25T05:45:20.684Z,19.60
2022-08-25T05:49:22.453Z,19.80
2022-08-25T05:53:24.938Z,20.20
2022-08-25T05:57:26.723Z,20.20
2022-08-25T06:01:47.858Z,20.30
2022-08-25T06:05:50.258Z,20.40
2022-08-25T06:09:51.963Z,20.50
2022-08-25T06:13:53.628Z,20.70
2022-08-25T06:18:01.641Z,20.70
2022-08-25T06:22:05.249Z,20.70
2022-08-25T06:26:07.517Z,20.90
2022-08-25T06:30:11.143Z,21.20
2022-08-25T06:34:13.708Z,21.40
2022-08-25T06:38:15.318Z,21.40
2022-08-25T06:42:17.163Z,21.60
2022-08-25T06:46:20.207Z,21.80
2022-08-25T06:50:21.869Z,21.90
2022-08-25T06:54:23.521Z,22.00
2022-08-25T06:58:25.328Z,22.40
2022-08-25T07:02:27.142Z,22.50
2022-08-25T07:06:31.982Z,22.40
2022-08-25T07:10:33.568Z,22.60
2022-08-25T07:14:36.455Z,22.80
2022-08-25T07:18:38.367Z,22.90
2022-08-25T07:22:40.910Z,23.20
2022-08-25T07:26:43.358Z,23.40
2022-08-25T07:30:45.437Z,23.70
2022-08-25T07:35:12.186Z,24.20
2022-08-25T07:39:14.328Z,24.20
2022-08-25T07:43:16.373Z,24.90
2022-08-25T07:47:18.292Z,25.00
2022-08-25T07:51:24.738Z,24.80
2022-08-25T07:55:27.850Z,25.10
2022-08-25T07:59:29.570Z,25.50
2022-08-25T08:03:45.104Z,25.70
2022-08-25T08:07:52.439Z,25.90
2022-08-25T08:11:54.527Z,26.20
2022-08-25T08:15:56.258Z,26.50
2022-08-25T08:19:59.011Z,26.70
2022-08-25T08:24:02.055Z,26.90
2022-08-25T08:28:07.151Z,27.10
2022-08-25T08:32:10.753Z,27.40
2022-08-25T08:36:12.737Z,27.80
2022-08-25T08:40:15.852Z,27.80
2022-08-25T08:44:37.159Z,27.90
2022-08-25T08:48:44.442Z,28.20
2022-08-25T08:52:48.794Z,28.40
2022-08-25T08:56:53.648Z,28.40
2022-08-25T09:00:59.283Z,28.50
2022-08-25T09:05:02.186Z,28.60
2022-08-25T09:09:06.892Z,28.80
2022-08-25T09:13:16.228Z,28.70
2022-08-25T09:17:24.276Z,28.60
2022-08-25T09:21:29.104Z,28.70
2022-08-25T09:25:52.551Z,28.60
2022-08-25T09:29:55.161Z,28.40
2022-08-25T09:33:57.520Z,28.90
2022-08-25T09:38:00.798Z,28.50
2022-08-25T09:42:02.528Z,28.60
2022-08-25T09:46:39.734Z,28.60
2022-08-25T09:50:46.759Z,28.90
2022-08-25T09:54:50.188Z,28.70
2022-08-25T09:58:52.134Z,28.90
2022-08-25T10:03:05.615Z,29.40
2022-08-25T10:07:20.140Z,29.50
2022-08-25T10:11:33.800Z,29.40
2022-08-25T10:15:38.023Z,29.90
2022-08-25T10:19:39.906Z,30.10
2022-08-25T10:23:49.550Z,30.00
2022-08-25T10:28:05.249Z,30.20
2022-08-25T10:32:15.759Z,29.90
2022-08-25T10:36:23.280Z,29.80
2022-08-25T10:40:28.727Z,30.40
2022-08-25T10:44:56.945Z,30.40
2022-08-25T10:49:16.818Z,30.60
2022-08-25T10:53:25.381Z,30.40
2022-08-25T10:57:30.650Z,30.60
2022-08-25T11:01:47.802Z,30.70
2022-08-25T11:06:05.722Z,30.60
2022-08-25T11:10:15.435Z,30.80
2022-08-25T11:14:36.397Z,30.50
2022-08-25T11:18:41.604Z,30.40
2022-08-25T11:22:43.223Z,30.70
2022-08-25T11:26:47.662Z,30.50
2022-08-25T11:30:50.570Z,30.40
2022-08-25T11:34:52.849Z,30.90
2022-08-25T11:39:10.655Z,31.40
2022-08-25T11:43:24.738Z,31.50
2022-08-25T11:47:34.281Z,31.60
2022-08-25T11:51:43.820Z,31.40
2022-08-25T11:55:45.943Z,31.40
2022-08-25T11:59:51.467Z,31.50
2022-08-25T12:03:53.385Z,31.80
2022-08-25T12:08:17.021Z,31.70
2022-08-25T12:12:29.303Z,31.80
2022-08-25T12:16:37.680Z,31.70
2022-08-25T12:20:55.014Z,31.80
2022-08-25T12:25:03.393Z,31.90
2022-08-25T12:29:21.322Z,32.10
2022-08-25T12:33:32.507Z,31.90
2022-08-25T12:37:35.405Z,32.10
2022-08-25T12:41:51.338Z,31.90
2022-08-25T12:45:55.128Z,31.80
2022-08-25T12:50:20.083Z,32.00
2022-08-25T12:54:40.920Z,32.20
2022-08-25T12:59:00.317Z,32.20
2022-08-25T13:07:58.133Z,32.10
2022-08-25T13:12:03.156Z,31.80
2022-08-25T13:16:08.507Z,31.90
2022-08-25T13:20:13.181Z,32.20
2022-08-25T13:24:19.485Z,32.20
2022-08-25T13:28:24.363Z,32.10
2022-08-25T13:32:32.131Z,32.10
2022-08-25T13:37:03.412Z,31.90
2022-08-25T13:41:09.267Z,31.80
2022-08-25T13:45:16.363Z,32.00
2022-08-25T13:49:27.347Z,32.10
2022-08-25T13:53:30.574Z,32.20
2022-08-25T13:57:34.489Z,32.20
2022-08-25T14:01:49.186Z,32.00
2022-08-25T14:06:03.598Z,32.10
2022-08-25T14:10:09.838Z,32.10
2022-08-25T14:14:30.643Z,32.00
2022-08-25T14:18:33.439Z,32.00
2022-08-25T14:22:35.190Z,31.80
2022-08-25T14:26:38.583Z,31.60
2022-08-25T14:31:05.273Z,31.70
2022-08-25T14:35:10.164Z,31.60
2022-08-25T14:39:12.156Z,31.20
2022-08-25T14:43:14.955Z,31.70
2022-08-25T14:47:17.059Z,31.80
2022-08-25T14:51:18.712Z,31.70
2022-08-25T14:55:31.724Z,31.70
2022-08-25T14:59:34.283Z,31.50
2022-08-25T15:03:38.321Z,31.60
2022-08-25T15:07:58.937Z,31.60
2022-08-25T15:12:00.682Z,31.60
2022-08-25T15:16:02.929Z,31.60
2022-08-25T15:20:06.396Z,31.50
2022-08-25T15:24:09.335Z,31.30
2022-08-25T15:28:12.698Z,31.20
2022-08-25T15:32:19.433Z,31.30
2022-08-25T15:36:24.608Z,31.30
2022-08-25T15:40:27.365Z,31.50
2022-08-25T15:44:29.824Z,31.50
2022-08-25T15:48:32.232Z,31.50
2022-08-25T15:52:44.587Z,31.60
2022-08-25T15:56:49.096Z,31.60
2022-08-25T16:00:56.123Z,31.50
2022-08-25T16:04:58.258Z,31.50
2022-08-25T16:09:00.654Z,31.80
2022-08-25T16:13:04.799Z,31.70
2022-08-25T16:17:07.267Z,31.70
2022-08-25T16:21:12.346Z,31.90
2022-08-25T16:25:15.285Z,32.10
2022-08-25T16:29:19.853Z,31.80
2022-08-25T16:33:21.817Z,32.10
2022-08-25T16:37:23.544Z,32.00
2022-08-25T16:41:31.225Z,32.10
2022-08-25T16:45:33.606Z,32.10
2022-08-25T16:49:35.331Z,31.80
2022-08-25T16:53:55.783Z,31.50
2022-08-25T16:57:58.779Z,31.40
2022-08-25T17:02:00.943Z,31.20
2022-08-25T17:06:03.086Z,31.00
2022-08-25T17:10:05.700Z,30.70
2022-08-25T17:14:11.110Z,30.70
2022-08-25T17:18:13.775Z,30.60
2022-08-25T17:22:16.116Z,30.60
2022-08-25T17:26:20.079Z,30.60
2022-08-25T17:30:30.130Z,30.50
2022-08-25T17:34:32.097Z,30.50
2022-08-25T17:38:34.641Z,30.30
2022-08-25T17:42:36.783Z,30.30
2022-08-25T17:46:44.163Z,30.30
2022-08-25T17:50:49.880Z,30.20
2022-08-25T17:54:52.922Z,30.10
2022-08-25T17:58:56.071Z,30.10
2022-08-25T18:02:57.811Z,30.00
2022-08-25T18:06:59.636Z,29.80
2022-08-25T18:11:01.554Z,29.80
2022-08-25T18:15:05.640Z,29.70
2022-08-25T18:19:09.637Z,29.50
2022-08-25T18:23:12.680Z,29.40
2022-08-25T18:27:14.446Z,29.30
2022-08-25T18:31:16.218Z,29.20
2022-08-25T18:35:22.587Z,29.20
2022-08-25T18:39:47.458Z,29.10
2022-08-25T18:43:49.172Z,28.90
2022-08-25T18:47:58.461Z,28.80
2022-08-25T18:52:01.506Z,28.80
2022-08-25T18:56:03.613Z,28.70
2022-08-25T19:00:06.282Z,28.70
2022-08-25T19:04:07.954Z,28.50
2022-08-25T19:08:11.465Z,28.40
2022-08-25T19:12:22.220Z,28.10
2022-08-25T19:16:35.406Z,27.80
2022-08-25T19:20:37.296Z,27.80
2022-08-25T19:24:39.079Z,27.80
2022-08-25T19:28:45.678Z,27.70
2022-08-25T19:32:47.949Z,27.50
2022-08-25T19:36:50.808Z,27.30
2022-08-25T19:40:52.599Z,27.00
2022-08-25T19:44:54.753Z,26.80
2022-08-25T19:48:56.703Z,26.50
2022-08-25T19:52:58.834Z,26.30
2022-08-25T19:57:01.262Z,26.10
2022-08-25T20:01:03.773Z,25.90
2022-08-25T20:05:06.066Z,25.90
2022-08-25T20:09:08.414Z,25.80
2022-08-25T20:13:25.715Z,25.50
2022-08-25T20:17:28.237Z,25.30
2022-08-25T20:21:31.870Z,25.00
2022-08-25T20:25:36.165Z,24.80
2022-08-25T20:29:38.982Z,24.50
2022-08-25T20:33:41.011Z,24.70
2022-08-25T20:37:45.767Z,24.80
2022-08-25T20:41:48.417Z,24.70
2022-08-25T20:45:58.625Z,24.60
2022-08-25T20:50:06.354Z,24.40
2022-08-25T20:54:12.047Z,24.20
2022-08-25T20:58:18.935Z,24.20
2022-08-25T21:02:20.928Z,24.20
2022-08-25T21:06:22.648Z,24.20
2022-08-25T21:10:24.262Z,24.10
2022-08-25T21:14:26.989Z,24.00
2022-08-25T21:18:31.641Z,24.10
2022-08-25T21:22:34.550Z,24.10
2022-08-25T21:26:36.803Z,23.80
2022-08-25T21:30:47.426Z,23.80
2022-08-25T21:34:53.671Z,23.70
2022-08-25T21:38:56.883Z,23.70
2022-08-25T21:42:58.655Z,23.70
2022-08-25T21:47:01.245Z,23.70
2022-08-25T21:51:07.269Z,23.80
2022-08-25T21:55:16.103Z,23.80
2022-08-25T21:59:24.164Z,23.80
2022-08-25T22:03:25.823Z,23.70
2022-08-25T22:07:29.160Z,23.70
2022-08-25T22:11:36.484Z,23.70
2022-08-25T22:15:38.189Z,23.70
2022-08-25T22:19:41.109Z,23.60
2022-08-25T22:23:44.548Z,23.90
2022-08-25T22:27:46.613Z,23.90
2022-08-25T22:31:59.295Z,23.70
2022-08-25T22:36:12.275Z,23.50
2022-08-25T22:40:14.089Z,23.50
2022-08-25T22:44:16.954Z,23.70
2022-08-25T22:48:20.805Z,23.90
2022-08-25T22:52:22.924Z,24.00
2022-08-25T22:56:36.735Z,24.00
2022-08-25T23:00:39.040Z,23.60
2022-08-25T23:04:41.261Z,23.30
2022-08-25T23:08:45.179Z,23.60
2022-08-25T23:12:46.812Z,23.90
2022-08-25T23:16:49.886Z,23.70
2022-08-25T23:21:10.673Z,23.70
2022-08-25T23:25:12.662Z,23.70
2022-08-25T23:29:18.379Z,23.60
2022-08-25T23:33:21.454Z,23.60
2022-08-25T23:37:23.033Z,23.50
2022-08-25T23:41:25.205Z,23.30
2022-08-25T23:45:27.030Z,23.30
2022-08-25T23:49:28.932Z,23.20
2022-08-25T23:53:31.181Z,23.20
2022-08-25T23:57:33.021Z,23.00
